Altmar, New York
Current Conditions -  °F | °C
As of 1:54 PM on Friday 24 Oct 2014 (Local Time) from KFZY Reporting Station
Clear Clear  
Wind Chill: 14°   Ceiling: Unl
Heat Index: 14°   Visibility: 10mi
Dew Point:   Wind: 15mph
Humidity: 60%   Direction: 280°W
Pressure: 29.91"   Gusts: NA
Location:  43.51°N, 76°W
Report Text: KFZY 241754Z AUTO 28013KT 10SM CLR 14/07 A2991 RMK AO2 SLP128 T01440067 10150 20078 58012
Loading
Personal Weather Stations






























Interactive Weather Map
Tropical Storm Tracking
New forecast layout! Learn more

10-Day Weather Forecast

Advertisements
Track Severe Weather on mobile